createdAt,value
2018-09-24T00:00:46.291Z,0.00
2018-09-24T00:01:46.285Z,0.00
2018-09-24T00:02:46.248Z,0.00
2018-09-24T00:03:46.264Z,0.00
2018-09-24T00:04:46.240Z,0.00
2018-09-24T00:05:46.251Z,0.00
2018-09-24T00:06:46.365Z,0.00
2018-09-24T00:07:46.252Z,0.00
2018-09-24T00:08:46.209Z,0.00
2018-09-24T00:09:46.182Z,0.00
2018-09-24T00:10:46.163Z,0.00
2018-09-24T00:11:46.189Z,0.00
2018-09-24T00:12:46.141Z,0.00
2018-09-24T00:13:46.157Z,0.00
2018-09-24T00:14:46.121Z,0.00
2018-09-24T00:15:46.143Z,0.00
2018-09-24T00:16:46.120Z,0.00
2018-09-24T00:17:46.111Z,0.00
2018-09-24T00:18:46.101Z,0.00
2018-09-24T00:19:46.063Z,0.00
2018-09-24T00:20:46.052Z,0.00
2018-09-24T00:21:46.043Z,0.00
2018-09-24T00:22:46.028Z,0.00
2018-09-24T00:23:46.078Z,0.00
2018-09-24T00:24:46.009Z,0.00
2018-09-24T00:25:45.997Z,0.00
2018-09-24T00:26:46.017Z,0.00
2018-09-24T00:27:45.974Z,0.00
2018-09-24T00:28:45.986Z,0.00
2018-09-24T00:29:46.038Z,0.00
2018-09-24T00:30:45.961Z,0.00
2018-09-24T00:31:45.936Z,0.00
2018-09-24T00:32:45.940Z,0.00
2018-09-24T00:33:45.936Z,0.00
2018-09-24T00:34:45.925Z,0.00
2018-09-24T00:35:45.892Z,0.00
2018-09-24T00:36:45.880Z,0.00
2018-09-24T00:37:45.886Z,0.00
2018-09-24T00:38:45.876Z,0.00
2018-09-24T00:39:45.866Z,0.00
2018-09-24T00:40:45.851Z,0.00
2018-09-24T00:41:45.818Z,0.00
2018-09-24T00:42:45.819Z,0.00
2018-09-24T00:43:45.844Z,0.00
2018-09-24T00:44:45.791Z,0.00
2018-09-24T00:45:45.842Z,0.00
2018-09-24T00:46:45.779Z,0.00
2018-09-24T00:47:45.760Z,0.00
2018-09-24T00:48:45.773Z,0.00
2018-09-24T00:49:45.741Z,0.00
2018-09-24T00:50:45.736Z,0.00
2018-09-24T00:51:45.719Z,0.00
2018-09-24T00:52:45.781Z,0.00
2018-09-24T00:53:45.768Z,0.00
2018-09-24T00:54:45.674Z,0.00
2018-09-24T00:55:45.661Z,0.00
2018-09-24T00:56:45.700Z,0.00
2018-09-24T00:57:45.643Z,0.00
2018-09-24T00:58:45.657Z,0.00
2018-09-24T00:59:45.648Z,0.00
2018-09-24T01:00:45.616Z,0.00
2018-09-24T01:01:45.600Z,0.00
2018-09-24T01:02:45.595Z,0.00
2018-09-24T01:03:45.642Z,0.00
2018-09-24T01:04:45.611Z,0.00
2018-09-24T01:05:45.554Z,0.00
2018-09-24T01:06:45.548Z,0.00
2018-09-24T01:07:45.532Z,0.00
2018-09-24T01:08:45.604Z,0.00
2018-09-24T01:09:45.506Z,0.00
2018-09-24T01:10:45.505Z,0.00
2018-09-24T01:11:45.527Z,0.00
2018-09-24T01:12:45.512Z,0.00
2018-09-24T01:13:45.499Z,0.00
2018-09-24T01:14:45.452Z,0.00
2018-09-24T01:15:45.473Z,0.00
2018-09-24T01:16:45.513Z,0.00
2018-09-24T01:17:45.418Z,0.00
2018-09-24T01:18:45.456Z,0.00
2018-09-24T01:19:45.450Z,0.00
2018-09-24T01:20:45.391Z,0.00
2018-09-24T01:21:45.411Z,0.00
2018-09-24T01:22:45.379Z,0.00
2018-09-24T01:23:45.547Z,0.00
2018-09-24T01:24:45.356Z,0.00
2018-09-24T01:25:45.411Z,0.00
2018-09-24T01:26:45.342Z,0.00
2018-09-24T01:27:45.316Z,0.00
2018-09-24T01:28:45.300Z,0.00
2018-09-24T01:29:45.392Z,0.00
2018-09-24T01:30:45.283Z,0.00
2018-09-24T01:31:45.284Z,0.00
2018-09-24T01:32:45.276Z,0.00
2018-09-24T01:33:45.282Z,0.00
2018-09-24T01:34:45.273Z,0.00
2018-09-24T01:35:45.234Z,0.00
2018-09-24T01:36:45.210Z,0.00
2018-09-24T01:37:45.207Z,0.00
2018-09-24T01:38:45.232Z,0.00
2018-09-24T01:39:45.190Z,0.00
2018-09-24T01:40:45.188Z,0.00
2018-09-24T01:41:45.173Z,0.00
2018-09-24T01:42:45.150Z,0.00
2018-09-24T01:43:45.145Z,0.00
2018-09-24T01:44:45.124Z,0.00
2018-09-24T01:45:45.178Z,0.00
2018-09-24T01:46:45.106Z,0.00
2018-09-24T01:47:45.093Z,0.00
2018-09-24T01:48:45.084Z,0.00
2018-09-24T01:49:45.097Z,0.00
2018-09-24T01:50:45.179Z,0.00
2018-09-24T01:51:45.136Z,0.00
2018-09-24T01:52:45.044Z,0.00
2018-09-24T01:53:45.037Z,0.00
2018-09-24T01:54:45.013Z,0.00
2018-09-24T01:55:45.106Z,0.00
2018-09-24T01:56:45.032Z,0.00
2018-09-24T01:57:45.001Z,0.00
2018-09-24T01:58:44.995Z,0.00
2018-09-24T01:59:45.043Z,0.00
2018-09-24T02:00:44.962Z,0.00
2018-09-24T02:01:44.987Z,0.00
2018-09-24T02:02:44.967Z,0.00
2018-09-24T02:03:44.927Z,0.00
2018-09-24T02:04:44.924Z,0.00
2018-09-24T02:05:44.905Z,0.00
2018-09-24T02:06:44.905Z,0.00
2018-09-24T02:07:44.985Z,0.00
2018-09-24T02:08:44.871Z,0.00
2018-09-24T02:09:44.898Z,0.00
2018-09-24T02:10:45.003Z,0.00
2018-09-24T02:11:44.861Z,0.00
2018-09-24T02:12:44.844Z,0.00
2018-09-24T02:13:44.892Z,0.00
2018-09-24T02:14:44.817Z,0.00
2018-09-24T02:15:44.804Z,0.00
2018-09-24T02:16:44.786Z,0.00
2018-09-24T02:17:44.778Z,0.00
2018-09-24T02:18:44.767Z,0.00
2018-09-24T02:19:44.852Z,0.00
2018-09-24T02:20:44.762Z,0.00
2018-09-24T02:21:44.725Z,0.00
2018-09-24T02:22:44.719Z,0.00
2018-09-24T02:23:44.732Z,0.00
2018-09-24T02:24:44.740Z,0.00
2018-09-24T02:25:44.730Z,0.00
2018-09-24T02:26:44.686Z,0.00
2018-09-24T02:27:44.688Z,0.00
2018-09-24T02:28:44.670Z,0.00
2018-09-24T02:29:44.639Z,0.00
2018-09-24T02:30:44.662Z,0.00
2018-09-24T02:31:44.645Z,0.00
2018-09-24T02:32:44.620Z,0.00
2018-09-24T02:33:44.601Z,0.00
2018-09-24T02:34:44.595Z,0.00
2018-09-24T02:35:44.603Z,0.00
2018-09-24T02:36:44.729Z,0.00
2018-09-24T02:37:44.602Z,0.00
2018-09-24T02:38:44.545Z,0.00
2018-09-24T02:39:44.544Z,0.00
2018-09-24T02:40:44.580Z,0.00
2018-09-24T02:41:44.539Z,0.00
2018-09-24T02:42:44.513Z,0.00
2018-09-24T02:43:44.520Z,0.00
2018-09-24T02:44:44.478Z,0.00
2018-09-24T02:45:44.479Z,0.00
2018-09-24T02:46:44.489Z,0.00
2018-09-24T02:47:44.468Z,0.00
2018-09-24T02:48:44.445Z,0.00
2018-09-24T02:49:44.432Z,0.00
2018-09-24T02:50:44.467Z,0.00
2018-09-24T02:51:44.468Z,0.00
2018-09-24T02:52:44.464Z,0.00
2018-09-24T02:53:44.385Z,0.00
2018-09-24T02:54:44.432Z,0.00
2018-09-24T02:55:44.379Z,0.00
2018-09-24T02:56:44.361Z,0.00
2018-09-24T02:57:44.401Z,0.00
2018-09-24T02:58:44.349Z,0.00
2018-09-24T02:59:44.347Z,0.00
2018-09-24T03:00:44.326Z,0.00
2018-09-24T03:01:44.293Z,0.00
2018-09-24T03:02:44.330Z,0.00
2018-09-24T03:03:44.311Z,0.00
2018-09-24T03:04:44.268Z,0.00
2018-09-24T03:05:44.260Z,0.00
2018-09-24T03:06:44.394Z,0.00
2018-09-24T03:07:44.255Z,0.00
2018-09-24T03:08:44.263Z,0.00
2018-09-24T03:09:44.273Z,0.00
2018-09-24T03:10:44.219Z,0.00
2018-09-24T03:11:44.196Z,0.00
2018-09-24T03:12:44.202Z,0.00
2018-09-24T03:13:44.165Z,0.00
2018-09-24T03:14:44.197Z,0.00
2018-09-24T03:15:44.152Z,0.00
2018-09-24T03:16:44.143Z,0.00
2018-09-24T03:17:44.124Z,0.00
2018-09-24T03:18:44.187Z,0.00
2018-09-24T03:19:44.134Z,0.00
2018-09-24T03:20:44.101Z,0.00
2018-09-24T03:21:44.093Z,0.00
2018-09-24T03:22:44.083Z,0.00
2018-09-24T03:23:44.057Z,0.00
2018-09-24T03:24:44.069Z,0.00
2018-09-24T03:25:44.096Z,0.00
2018-09-24T03:26:44.030Z,0.00
2018-09-24T03:27:44.025Z,0.00
2018-09-24T03:28:44.210Z,0.00
2018-09-24T03:29:44.004Z,0.00
2018-09-24T03:30:44.067Z,0.00
2018-09-24T03:31:44.007Z,0.00
2018-09-24T03:32:43.971Z,0.00
2018-09-24T03:33:44.041Z,0.00
2018-09-24T03:34:43.961Z,0.00
2018-09-24T03:35:43.925Z,0.00
2018-09-24T03:36:44.024Z,0.00
2018-09-24T03:37:43.954Z,0.00
2018-09-24T03:38:43.898Z,0.00
2018-09-24T03:39:43.890Z,0.00
2018-09-24T03:40:43.873Z,0.00
2018-09-24T03:41:43.887Z,0.00
2018-09-24T03:42:43.885Z,0.00
2018-09-24T03:43:43.853Z,0.00
2018-09-24T03:44:43.871Z,0.00
2018-09-24T03:45:43.845Z,0.00
2018-09-24T03:46:43.866Z,0.00
2018-09-24T03:47:43.838Z,0.00
2018-09-24T03:48:43.840Z,0.00
2018-09-24T03:49:43.813Z,0.00
2018-09-24T03:50:43.780Z,0.00
2018-09-24T03:51:43.780Z,0.00
2018-09-24T03:52:43.785Z,0.00
2018-09-24T03:53:43.794Z,0.00
2018-09-24T03:54:43.761Z,0.00
2018-09-24T03:55:43.715Z,0.00
2018-09-24T03:56:43.702Z,0.00
2018-09-24T03:57:43.690Z,0.00
2018-09-24T03:58:43.787Z,0.00
2018-09-24T03:59:43.694Z,0.00
2018-09-24T04:00:43.690Z,0.00
2018-09-24T04:01:43.661Z,0.00
2018-09-24T04:02:43.640Z,0.00
2018-09-24T04:03:43.634Z,0.00
2018-09-24T04:04:43.663Z,0.00
2018-09-24T04:05:43.623Z,0.00
2018-09-24T04:06:43.607Z,0.00
2018-09-24T04:07:43.712Z,0.00
2018-09-24T04:08:43.599Z,0.00
2018-09-24T04:09:43.623Z,0.00
2018-09-24T04:10:43.606Z,0.00
2018-09-24T04:11:43.554Z,0.00
2018-09-24T04:12:43.560Z,0.00
2018-09-24T04:13:43.520Z,0.00
2018-09-24T04:14:43.589Z,0.00
2018-09-24T04:15:43.542Z,0.00
2018-09-24T04:16:43.486Z,0.00
2018-09-24T04:17:43.548Z,0.00
2018-09-24T04:18:43.471Z,0.00
2018-09-24T04:19:43.493Z,0.00
2018-09-24T04:20:43.485Z,0.00
2018-09-24T04:21:43.444Z,0.00
2018-09-24T04:22:43.449Z,0.00
2018-09-24T04:23:43.424Z,0.00
2018-09-24T04:24:43.471Z,0.00
2018-09-24T04:25:43.406Z,0.00
2018-09-24T04:26:43.397Z,0.00
2018-09-24T04:27:43.373Z,0.00
2018-09-24T04:28:43.363Z,0.00
2018-09-24T04:29:43.450Z,0.00
2018-09-24T04:30:43.390Z,0.00
2018-09-24T04:31:43.398Z,0.00
2018-09-24T04:32:43.318Z,0.00
2018-09-24T04:33:43.337Z,0.00
2018-09-24T04:34:43.336Z,0.00
2018-09-24T04:35:43.310Z,0.00
2018-09-24T04:36:43.291Z,0.00
2018-09-24T04:37:43.271Z,0.00
2018-09-24T04:38:43.268Z,0.00
2018-09-24T04:39:43.300Z,0.00
2018-09-24T04:40:43.275Z,0.00
2018-09-24T04:41:43.288Z,0.00
2018-09-24T04:42:43.218Z,0.00
2018-09-24T04:43:43.211Z,0.00
2018-09-24T04:44:43.219Z,0.00
2018-09-24T04:45:43.242Z,0.00
2018-09-24T04:46:43.186Z,0.00
2018-09-24T04:47:43.173Z,0.00
2018-09-24T04:48:43.201Z,0.00
2018-09-24T04:49:43.157Z,4.00
2018-09-24T04:50:43.168Z,4.00
2018-09-24T04:51:43.134Z,0.00
2018-09-24T04:52:43.157Z,4.00
2018-09-24T04:53:43.103Z,0.00
2018-09-24T04:54:43.097Z,4.00
2018-09-24T04:55:43.139Z,4.00
2018-09-24T04:56:43.108Z,4.00
2018-09-24T04:57:43.059Z,8.00
2018-09-24T04:58:43.116Z,12.00
2018-09-24T04:59:43.033Z,8.00
2018-09-24T05:00:43.111Z,12.00
2018-09-24T05:01:43.040Z,12.00
2018-09-24T05:02:43.002Z,16.00
2018-09-24T05:03:43.002Z,20.00
2018-09-24T05:04:43.008Z,28.00
2018-09-24T05:05:42.996Z,32.00
2018-09-24T05:06:42.971Z,36.00
2018-09-24T05:07:42.951Z,40.00
2018-09-24T05:08:42.979Z,48.00
2018-09-24T05:09:42.929Z,56.00
2018-09-24T05:10:42.947Z,64.00
2018-09-24T05:11:42.904Z,72.00
2018-09-24T05:12:42.908Z,80.00
2018-09-24T05:13:42.904Z,96.00
2018-09-24T05:14:42.965Z,104.00
2018-09-24T05:15:42.902Z,120.00
2018-09-24T05:16:42.879Z,136.00
2018-09-24T05:17:42.835Z,148.00
2018-09-24T05:18:43.033Z,168.00
2018-09-24T05:19:42.829Z,180.00
2018-09-24T05:20:42.824Z,196.00
2018-09-24T05:21:42.834Z,216.00
2018-09-24T05:22:42.850Z,240.00
2018-09-24T05:23:42.837Z,260.00
2018-09-24T05:24:42.760Z,276.00
2018-09-24T05:25:42.755Z,300.00
2018-09-24T05:26:42.797Z,324.00
2018-09-24T05:27:42.817Z,348.00
2018-09-24T05:28:42.770Z,372.00
2018-09-24T05:29:42.709Z,396.00
2018-09-24T05:30:42.701Z,420.00
2018-09-24T05:31:42.742Z,440.00
2018-09-24T05:32:42.671Z,468.00
2018-09-24T05:33:42.683Z,492.00
2018-09-24T05:34:42.712Z,520.00
2018-09-24T05:35:42.650Z,548.00
2018-09-24T05:36:42.716Z,580.00
2018-09-24T05:37:42.625Z,616.00
2018-09-24T05:38:42.643Z,644.00
2018-09-24T05:39:42.648Z,672.00
2018-09-24T05:40:42.597Z,708.00
2018-09-24T05:41:42.628Z,740.00
2018-09-24T05:42:42.585Z,768.00
2018-09-24T05:43:42.624Z,800.00
2018-09-24T05:44:42.568Z,828.00
2018-09-24T05:45:42.539Z,848.00
2018-09-24T05:46:43.020Z,888.00
2018-09-24T05:47:42.524Z,924.00
2018-09-24T05:48:42.566Z,956.00
2018-09-24T05:49:42.532Z,968.00
2018-09-24T05:50:42.507Z,1004.00
2018-09-24T05:51:42.466Z,1044.00
2018-09-24T05:52:42.710Z,1068.00
2018-09-24T05:53:42.463Z,1092.00
2018-09-24T05:54:42.432Z,1124.00
2018-09-24T05:55:42.438Z,1156.00
2018-09-24T05:56:42.414Z,1192.00
2018-09-24T05:57:42.453Z,1216.00
2018-09-24T05:58:42.565Z,1244.00
2018-09-24T05:59:42.410Z,1268.00
2018-09-24T06:00:42.377Z,1304.00
2018-09-24T06:01:42.424Z,1340.00
2018-09-24T06:02:42.583Z,1376.00
2018-09-24T06:03:42.338Z,1428.00
2018-09-24T06:04:42.366Z,1488.00
2018-09-24T06:05:42.365Z,1472.00
2018-09-24T06:06:42.437Z,1460.00
2018-09-24T06:07:42.320Z,1480.00
2018-09-24T06:08:42.294Z,1504.00
2018-09-24T06:09:42.279Z,1528.00
2018-09-24T06:10:42.263Z,1564.00
2018-09-24T06:11:42.397Z,1604.00
2018-09-24T06:12:42.334Z,1632.00
2018-09-24T06:13:42.293Z,1644.00
2018-09-24T06:14:42.233Z,1668.00
2018-09-24T06:15:42.305Z,1696.00
2018-09-24T06:16:42.200Z,1748.00
2018-09-24T06:17:42.241Z,1756.00
2018-09-24T06:18:42.340Z,1768.00
2018-09-24T06:19:42.169Z,1824.00
2018-09-24T06:20:42.155Z,1868.00
2018-09-24T06:21:42.184Z,1872.00
2018-09-24T06:22:42.217Z,1860.00
2018-09-24T06:23:42.143Z,1860.00
2018-09-24T06:24:42.189Z,1996.00
2018-09-24T06:25:42.127Z,2204.00
2018-09-24T06:26:42.099Z,2472.00
2018-09-24T06:27:42.120Z,3304.00
2018-09-24T06:28:42.072Z,3596.00
2018-09-24T06:29:42.062Z,4080.00
2018-09-24T06:30:42.054Z,4552.00
2018-09-24T06:31:42.043Z,4240.00
2018-09-24T06:32:42.083Z,3160.00
2018-09-24T06:33:42.038Z,3348.00
2018-09-24T06:34:42.005Z,3220.00
2018-09-24T06:35:42.017Z,3164.00
2018-09-24T06:36:41.995Z,2900.00
2018-09-24T06:37:42.021Z,2580.00
2018-09-24T06:38:41.995Z,2392.00
2018-09-24T06:39:42.017Z,1984.00
2018-09-24T06:40:41.953Z,2008.00
2018-09-24T06:41:41.935Z,2120.00
2018-09-24T06:42:41.935Z,2240.00
2018-09-24T06:43:41.938Z,2480.00
2018-09-24T06:44:41.949Z,2508.00
2018-09-24T06:45:41.976Z,2528.00
2018-09-24T06:46:41.937Z,2476.00
2018-09-24T06:47:41.863Z,2512.00
2018-09-24T06:48:42.036Z,2536.00
2018-09-24T06:49:41.878Z,2528.00
2018-09-24T06:50:41.835Z,2552.00
2018-09-24T06:51:41.843Z,2592.00
2018-09-24T06:52:41.833Z,2688.00
2018-09-24T06:53:41.979Z,2776.00
2018-09-24T06:54:41.798Z,2696.00
2018-09-24T06:55:41.789Z,2636.00
2018-09-24T06:56:41.783Z,2624.00
2018-09-24T06:57:41.765Z,2592.00
2018-09-24T06:58:41.826Z,2620.00
2018-09-24T06:59:41.853Z,2632.00
2018-09-24T07:00:41.726Z,2664.00
2018-09-24T07:01:41.723Z,2692.00
2018-09-24T07:02:41.740Z,2700.00
2018-09-24T07:03:41.913Z,2748.00
2018-09-24T07:04:41.708Z,2804.00
2018-09-24T07:05:41.714Z,2876.00
2018-09-24T07:06:41.896Z,3192.00
2018-09-24T07:07:41.656Z,3808.00
2018-09-24T07:08:41.737Z,4700.00
2018-09-24T07:09:41.637Z,4760.00
2018-09-24T07:10:41.863Z,4380.00
2018-09-24T07:11:41.630Z,3732.00
2018-09-24T07:12:41.594Z,3068.00
2018-09-24T07:13:41.588Z,2928.00
2018-09-24T07:14:41.732Z,2716.00
2018-09-24T07:15:41.596Z,2868.00
2018-09-24T07:16:41.577Z,2932.00
2018-09-24T07:17:41.564Z,2988.00
2018-09-24T07:18:41.559Z,2980.00
2018-09-24T07:19:41.920Z,2952.00
2018-09-24T07:20:41.512Z,2924.00
2018-09-24T07:21:41.535Z,2876.00
2018-09-24T07:22:41.487Z,2888.00
2018-09-24T07:23:41.585Z,2884.00
2018-09-24T07:24:41.534Z,2916.00
2018-09-24T07:25:41.489Z,2936.00
2018-09-24T07:26:41.487Z,2956.00
2018-09-24T07:27:41.460Z,2980.00
2018-09-24T07:28:41.420Z,3016.00
2018-09-24T07:29:41.458Z,3108.00
2018-09-24T07:30:41.465Z,3248.00
2018-09-24T07:31:41.436Z,3584.00
2018-09-24T07:32:41.489Z,3784.00
2018-09-24T07:33:41.381Z,4056.00
2018-09-24T07:34:41.382Z,4080.00
2018-09-24T07:35:41.360Z,4128.00
2018-09-24T07:36:41.367Z,3436.00
2018-09-24T07:37:41.331Z,3304.00
2018-09-24T07:38:41.341Z,3340.00
2018-09-24T07:39:41.323Z,3408.00
2018-09-24T07:40:41.284Z,3420.00
2018-09-24T07:41:41.335Z,3356.00
2018-09-24T07:42:41.288Z,3324.00
2018-09-24T07:43:41.336Z,3256.00
2018-09-24T07:44:41.301Z,3212.00
2018-09-24T07:45:41.258Z,3192.00
2018-09-24T07:46:41.227Z,3216.00
2018-09-24T07:47:41.226Z,3248.00
2018-09-24T07:48:41.199Z,3216.00
2018-09-24T07:49:41.252Z,3300.00
2018-09-24T07:50:41.213Z,3260.00
2018-09-24T07:51:41.181Z,3248.00
2018-09-24T07:52:41.194Z,3252.00
2018-09-24T07:53:41.179Z,3248.00
2018-09-24T07:54:41.143Z,3196.00
2018-09-24T07:55:41.210Z,3184.00
2018-09-24T07:56:41.173Z,3192.00
2018-09-24T07:57:41.136Z,3204.00
2018-09-24T07:58:41.134Z,3240.00
2018-09-24T07:59:41.191Z,3260.00
2018-09-24T08:00:41.138Z,3268.00
2018-09-24T08:01:41.082Z,3292.00
2018-09-24T08:02:41.052Z,3288.00
2018-09-24T08:03:41.152Z,3264.00
2018-09-24T08:04:41.146Z,3308.00
2018-09-24T08:05:41.061Z,3312.00
2018-09-24T08:06:41.022Z,3300.00
2018-09-24T08:07:41.109Z,3308.00
2018-09-24T08:08:40.995Z,3352.00
2018-09-24T08:09:40.977Z,3388.00
2018-09-24T08:10:41.043Z,3388.00
2018-09-24T08:11:40.966Z,3348.00
2018-09-24T08:12:40.948Z,3476.00
2018-09-24T08:13:40.968Z,3728.00
2018-09-24T08:14:40.934Z,4244.00
2018-09-24T08:15:40.953Z,5164.00
2018-09-24T08:16:40.908Z,5540.00
2018-09-24T08:17:40.900Z,5296.00
2018-09-24T08:18:40.927Z,5644.00
2018-09-24T08:19:40.875Z,5192.00
2018-09-24T08:20:40.963Z,5188.00
2018-09-24T08:21:40.846Z,6536.00
2018-09-24T08:22:40.853Z,8308.00
2018-09-24T08:23:40.857Z,9448.00
2018-09-24T08:24:40.807Z,10076.00
2018-09-24T08:25:40.843Z,10488.00
2018-09-24T08:26:40.784Z,10744.00
2018-09-24T08:27:40.902Z,12260.00
2018-09-24T08:28:40.801Z,12612.00
2018-09-24T08:29:40.761Z,11368.00
2018-09-24T08:30:40.757Z,10796.00
2018-09-24T08:31:40.758Z,8776.00
2018-09-24T08:32:40.736Z,7508.00
2018-09-24T08:33:40.723Z,6108.00
2018-09-24T08:34:40.782Z,5712.00
2018-09-24T08:35:40.703Z,5864.00
2018-09-24T08:36:40.719Z,7456.00
2018-09-24T08:37:40.677Z,10632.00
2018-09-24T08:38:40.655Z,12804.00
2018-09-24T08:39:40.708Z,13096.00
2018-09-24T08:40:41.086Z,11780.00
2018-09-24T08:41:40.647Z,12272.00
2018-09-24T08:42:40.613Z,13000.00
2018-09-24T08:43:40.603Z,12668.00
2018-09-24T08:44:40.622Z,12752.00
2018-09-24T08:45:40.615Z,13564.00
2018-09-24T08:46:40.622Z,14760.00
2018-09-24T08:47:40.608Z,14580.00
2018-09-24T08:48:40.571Z,13972.00
2018-09-24T08:49:40.594Z,13696.00
2018-09-24T08:50:40.644Z,12852.00
2018-09-24T08:51:40.572Z,12220.00
2018-09-24T08:52:40.549Z,11704.00
2018-09-24T08:53:40.553Z,11484.00
2018-09-24T08:54:40.490Z,11436.00
2018-09-24T08:55:40.500Z,11480.00
2018-09-24T08:56:40.580Z,11424.00
2018-09-24T08:57:40.612Z,10464.00
2018-09-24T08:58:40.470Z,9652.00
2018-09-24T08:59:40.618Z,10068.00
2018-09-24T09:00:40.464Z,9884.00
2018-09-24T09:01:40.438Z,8968.00
2018-09-24T09:02:40.520Z,9804.00
2018-09-24T09:03:40.461Z,10560.00
2018-09-24T09:04:40.392Z,9852.00
2018-09-24T09:05:40.399Z,8520.00
2018-09-24T09:06:41.183Z,6328.00
2018-09-24T09:07:40.435Z,3836.00
2018-09-24T09:08:40.334Z,3560.00
2018-09-24T09:09:40.360Z,3640.00
2018-09-24T09:10:40.463Z,3840.00
2018-09-24T09:11:40.342Z,3852.00
2018-09-24T09:12:41.491Z,3868.00
2018-09-24T09:13:40.302Z,3916.00
2018-09-24T09:14:40.276Z,3980.00
2018-09-24T09:15:40.288Z,3868.00
2018-09-24T09:16:40.282Z,3804.00
2018-09-24T09:17:40.348Z,3784.00
2018-09-24T09:18:40.232Z,3772.00
2018-09-24T09:19:40.224Z,3792.00
2018-09-24T09:20:40.215Z,4020.00
2018-09-24T09:21:41.153Z,4268.00
2018-09-24T09:22:40.251Z,4344.00
2018-09-24T09:23:40.168Z,4416.00
2018-09-24T09:24:40.161Z,4484.00
2018-09-24T09:25:40.193Z,4900.00
2018-09-24T09:26:40.162Z,4596.00
2018-09-24T09:27:40.165Z,4388.00
2018-09-24T09:28:40.123Z,4540.00
2018-09-24T09:29:40.153Z,4552.00
2018-09-24T09:30:40.120Z,4088.00
2018-09-24T09:31:40.221Z,3920.00
2018-09-24T09:32:40.152Z,3884.00
2018-09-24T09:33:40.077Z,3988.00
2018-09-24T09:34:40.049Z,4196.00
2018-09-24T09:35:40.051Z,4920.00
2018-09-24T09:36:40.104Z,7740.00
2018-09-24T09:37:40.090Z,8540.00
2018-09-24T09:38:40.085Z,6564.00
2018-09-24T09:39:40.003Z,7024.00
2018-09-24T09:40:39.989Z,7608.00
2018-09-24T09:41:39.975Z,9268.00
2018-09-24T09:42:40.179Z,10252.00
2018-09-24T09:43:40.113Z,8128.00
2018-09-24T09:44:39.973Z,6648.00
2018-09-24T09:45:39.944Z,7012.00
2018-09-24T09:46:40.561Z,8792.00
2018-09-24T09:47:39.975Z,8100.00
2018-09-24T09:48:39.980Z,5940.00
2018-09-24T09:49:39.903Z,4460.00
2018-09-24T09:50:39.928Z,4408.00
2018-09-24T09:51:39.974Z,4844.00
2018-09-24T09:52:39.870Z,6264.00
2018-09-24T09:53:39.929Z,8180.00
2018-09-24T09:54:39.862Z,10624.00
2018-09-24T09:55:39.825Z,10428.00
2018-09-24T09:56:39.839Z,9268.00
2018-09-24T09:57:39.801Z,7048.00
2018-09-24T09:58:39.839Z,6996.00
2018-09-24T09:59:39.796Z,6896.00
2018-09-24T10:00:40.082Z,7784.00
2018-09-24T10:01:39.769Z,9788.00
2018-09-24T10:02:39.750Z,9840.00
2018-09-24T10:03:39.766Z,8136.00
2018-09-24T10:04:39.869Z,8036.00
2018-09-24T10:05:39.737Z,8996.00
2018-09-24T10:06:39.727Z,11916.00
2018-09-24T10:07:39.688Z,9272.00
2018-09-24T10:08:39.825Z,9584.00
2018-09-24T10:09:39.713Z,10364.00
2018-09-24T10:10:39.670Z,9388.00
2018-09-24T10:11:39.720Z,10508.00
2018-09-24T10:12:39.735Z,11020.00
2018-09-24T10:13:39.656Z,10376.00
2018-09-24T10:14:39.641Z,13204.00
2018-09-24T10:15:39.612Z,14368.00
2018-09-24T10:16:39.631Z,12288.00
2018-09-24T10:17:39.592Z,12560.00
2018-09-24T10:18:39.613Z,13924.00
2018-09-24T10:19:39.609Z,13344.00
2018-09-24T10:20:39.625Z,12480.00
2018-09-24T10:21:39.575Z,13252.00
2018-09-24T10:22:39.569Z,13836.00
2018-09-24T10:23:39.538Z,12748.00
2018-09-24T10:24:39.541Z,11428.00
2018-09-24T10:25:39.522Z,11856.00
2018-09-24T10:26:39.495Z,12720.00
2018-09-24T10:27:39.487Z,12672.00
2018-09-24T10:28:39.605Z,12436.00
2018-09-24T10:29:39.462Z,10444.00
2018-09-24T10:30:39.459Z,7440.00
2018-09-24T10:31:39.431Z,4180.00
2018-09-24T10:32:39.489Z,3432.00
2018-09-24T10:33:39.480Z,3612.00
2018-09-24T10:34:39.437Z,3740.00
2018-09-24T10:35:39.390Z,4432.00
2018-09-24T10:36:39.629Z,6060.00
2018-09-24T10:37:39.405Z,7756.00
2018-09-24T10:38:39.396Z,8336.00
2018-09-24T10:39:39.416Z,7816.00
2018-09-24T10:40:39.343Z,8940.00
2018-09-24T10:41:39.340Z,9448.00
2018-09-24T10:42:39.377Z,8936.00
2018-09-24T10:43:39.302Z,9864.00
2018-09-24T10:44:39.371Z,12016.00
2018-09-24T10:45:39.283Z,12808.00
2018-09-24T10:46:39.305Z,13256.00
2018-09-24T10:47:39.299Z,13492.00
2018-09-24T10:48:39.355Z,13916.00
2018-09-24T10:49:39.281Z,13512.00
2018-09-24T10:50:39.290Z,11580.00
2018-09-24T10:51:39.228Z,10360.00
2018-09-24T10:52:39.198Z,10184.00
2018-09-24T10:53:39.203Z,11160.00
2018-09-24T10:54:39.243Z,12288.00
2018-09-24T10:55:39.198Z,12540.00
2018-09-24T10:56:39.166Z,12136.00
2018-09-24T10:57:39.224Z,10096.00
2018-09-24T10:58:39.175Z,7572.00
2018-09-24T10:59:39.230Z,6800.00
2018-09-24T11:00:39.128Z,8304.00
2018-09-24T11:01:39.122Z,10224.00
2018-09-24T11:02:39.134Z,9324.00
2018-09-24T11:03:39.086Z,10168.00
2018-09-24T11:04:39.226Z,11864.00
2018-09-24T11:05:39.066Z,11172.00
2018-09-24T11:06:39.084Z,10576.00
2018-09-24T11:07:39.069Z,8532.00
2018-09-24T11:08:39.050Z,7932.00
2018-09-24T11:09:39.081Z,6960.00
2018-09-24T11:10:39.034Z,6820.00
2018-09-24T11:11:39.012Z,6020.00
2018-09-24T11:12:38.985Z,5588.00
2018-09-24T11:13:39.043Z,5144.00
2018-09-24T11:14:38.959Z,5128.00
2018-09-24T11:15:39.100Z,4616.00
2018-09-24T11:16:39.390Z,4564.00
2018-09-24T11:17:39.180Z,4436.00
2018-09-24T11:18:38.964Z,4236.00
2018-09-24T11:19:38.930Z,4132.00
2018-09-24T11:20:38.938Z,4100.00
2018-09-24T11:21:38.882Z,4096.00
2018-09-24T11:22:38.902Z,4088.00
2018-09-24T11:23:38.907Z,4136.00
2018-09-24T11:24:38.887Z,4140.00
2018-09-24T11:25:38.861Z,4128.00
2018-09-24T11:26:38.834Z,4164.00
2018-09-24T11:27:38.822Z,4100.00
2018-09-24T11:28:38.858Z,4044.00
2018-09-24T11:29:38.818Z,4024.00
2018-09-24T11:30:38.816Z,3904.00
2018-09-24T11:31:38.825Z,3976.00
2018-09-24T11:32:38.788Z,3956.00
2018-09-24T11:33:38.765Z,4044.00
2018-09-24T11:34:38.759Z,4140.00
2018-09-24T11:35:38.761Z,4324.00
2018-09-24T11:36:38.718Z,5712.00
2018-09-24T11:37:38.727Z,5432.00
2018-09-24T11:38:38.707Z,5200.00
2018-09-24T11:39:38.730Z,5468.00
2018-09-24T11:40:38.744Z,6944.00
2018-09-24T11:41:38.748Z,8808.00
2018-09-24T11:42:38.675Z,8964.00
2018-09-24T11:43:38.645Z,12004.00
2018-09-24T11:44:38.637Z,10932.00
2018-09-24T11:45:38.691Z,12724.00
2018-09-24T11:46:38.744Z,11192.00
2018-09-24T11:47:38.597Z,10796.00
2018-09-24T11:48:38.708Z,10524.00
2018-09-24T11:49:38.593Z,11664.00
2018-09-24T11:50:38.568Z,12412.00
2018-09-24T11:51:38.970Z,10880.00
2018-09-24T11:52:38.572Z,9344.00
2018-09-24T11:53:38.541Z,9324.00
2018-09-24T11:54:38.624Z,9264.00
2018-09-24T11:55:38.520Z,9180.00
2018-09-24T11:56:38.537Z,9232.00
2018-09-24T11:57:38.519Z,11572.00
2018-09-24T11:58:38.473Z,13548.00
2018-09-24T11:59:38.552Z,15436.00
2018-09-24T12:00:38.501Z,18048.00
2018-09-24T12:01:38.493Z,21152.00
2018-09-24T12:02:38.430Z,18688.00
2018-09-24T12:03:38.446Z,17952.00
2018-09-24T12:04:38.585Z,18720.00
2018-09-24T12:05:38.419Z,21120.00
2018-09-24T12:06:38.463Z,19296.00
2018-09-24T12:07:38.381Z,68576.00
2018-09-24T12:08:38.437Z,77120.00
2018-09-24T12:09:38.402Z,80480.00
2018-09-24T12:10:38.407Z,62400.00
2018-09-24T12:11:38.411Z,20000.00
2018-09-24T12:12:38.408Z,77248.00
2018-09-24T12:13:38.331Z,12268.00
2018-09-24T12:14:38.305Z,16768.00
2018-09-24T12:15:38.323Z,69216.00
2018-09-24T12:16:38.334Z,75360.00
2018-09-24T12:17:38.329Z,81504.00
2018-09-24T12:18:38.295Z,80608.00
2018-09-24T12:19:38.276Z,78016.00
2018-09-24T12:20:38.263Z,74464.00
2018-09-24T12:21:38.285Z,33184.00
2018-09-24T12:22:38.331Z,52416.00
2018-09-24T12:23:38.313Z,12040.00
2018-09-24T12:24:38.196Z,9028.00
2018-09-24T12:25:38.182Z,76704.00
2018-09-24T12:26:38.290Z,78208.00
2018-09-24T12:27:38.269Z,14948.00
2018-09-24T12:28:38.154Z,12616.00
2018-09-24T12:29:38.456Z,9320.00
2018-09-24T12:30:38.144Z,7044.00
2018-09-24T12:31:38.133Z,5400.00